METAR Data
IDs: Format: Raw Decoded Include TAF

Data at: 0026 UTC 01 Mar 2021

OMSJ 010000Z 17005KT CAVOK 16/09 Q1014 NOSIG